sensor_id;sensor_type;location;lat;lon;timestamp;P1;durP1;ratioP1;P2;durP2;ratioP2
1987;SDS011;12775;46.994;15.498;2022-11-11T00:01:50;25.58;;;14.30;;
1987;SDS011;12775;46.994;15.498;2022-11-11T00:04:17;18.66;;;14.22;;
1987;SDS011;12775;46.994;15.498;2022-11-11T00:06:45;17.54;;;13.34;;
1987;SDS011;12775;46.994;15.498;2022-11-11T00:09:10;24.00;;;13.86;;
1987;SDS011;12775;46.994;15.498;2022-11-11T00:11:37;19.14;;;13.28;;
1987;SDS011;12775;46.994;15.498;2022-11-11T00:14:03;29.46;;;13.86;;
1987;SDS011;12775;46.994;15.498;2022-11-11T00:16:30;29.62;;;14.36;;
1987;SDS011;12775;46.994;15.498;2022-11-11T00:18:57;26.28;;;13.44;;
1987;SDS011;12775;46.994;15.498;2022-11-11T00:21:30;34.30;;;13.70;;
1987;SDS011;12775;46.994;15.498;2022-11-11T00:24:03;40.32;;;17.36;;
1987;SDS011;12775;46.994;15.498;2022-11-11T00:26:34;45.80;;;15.40;;
1987;SDS011;12775;46.994;15.498;2022-11-11T00:29:01;29.10;;;14.94;;
1987;SDS011;12775;46.994;15.498;2022-11-11T00:31:28;22.80;;;14.86;;
1987;SDS011;12775;46.994;15.498;2022-11-11T00:33:54;31.44;;;15.50;;
1987;SDS011;12775;46.994;15.498;2022-11-11T00:36:21;27.94;;;16.08;;
1987;SDS011;12775;46.994;15.498;2022-11-11T00:38:47;36.66;;;16.30;;
1987;SDS011;12775;46.994;15.498;2022-11-11T00:41:16;39.82;;;18.04;;
1987;SDS011;12775;46.994;15.498;2022-11-11T00:43:41;48.18;;;18.26;;
1987;SDS011;12775;46.994;15.498;2022-11-11T00:46:07;32.00;;;16.06;;
1987;SDS011;12775;46.994;15.498;2022-11-11T00:48:40;24.96;;;15.40;;
1987;SDS011;12775;46.994;15.498;2022-11-11T00:51:12;26.32;;;15.90;;
1987;SDS011;12775;46.994;15.498;2022-11-11T00:53:39;27.22;;;14.74;;
1987;SDS011;12775;46.994;15.498;2022-11-11T00:56:05;29.70;;;14.82;;
1987;SDS011;12775;46.994;15.498;2022-11-11T00:58:32;20.82;;;13.80;;
1987;SDS011;12775;46.994;15.498;2022-11-11T01:00:59;19.24;;;12.60;;
1987;SDS011;12775;46.994;15.498;2022-11-11T01:03:25;18.42;;;11.98;;
1987;SDS011;12775;46.994;15.498;2022-11-11T01:05:52;30.42;;;13.80;;
1987;SDS011;12775;46.994;15.498;2022-11-11T01:08:18;28.86;;;13.08;;
1987;SDS011;12775;46.994;15.498;2022-11-11T01:10:45;24.50;;;11.76;;
1987;SDS011;12775;46.994;15.498;2022-11-11T01:13:13;24.64;;;12.76;;
1987;SDS011;12775;46.994;15.498;2022-11-11T01:15:43;33.30;;;11.90;;
1987;SDS011;12775;46.994;15.498;2022-11-11T01:18:09;21.40;;;11.32;;
1987;SDS011;12775;46.994;15.498;2022-11-11T01:20:35;18.34;;;11.58;;
1987;SDS011;12775;46.994;15.498;2022-11-11T01:23:03;15.16;;;11.08;;
1987;SDS011;12775;46.994;15.498;2022-11-11T01:25:31;28.60;;;11.22;;
1987;SDS011;12775;46.994;15.498;2022-11-11T01:28:04;25.96;;;12.76;;
1987;SDS011;12775;46.994;15.498;2022-11-11T01:30:32;36.78;;;14.34;;
1987;SDS011;12775;46.994;15.498;2022-11-11T01:32:58;17.42;;;12.04;;
1987;SDS011;12775;46.994;15.498;2022-11-11T01:35:24;18.48;;;12.12;;
1987;SDS011;12775;46.994;15.498;2022-11-11T01:37:51;41.06;;;15.24;;
1987;SDS011;12775;46.994;15.498;2022-11-11T01:40:18;29.32;;;13.78;;
1987;SDS011;12775;46.994;15.498;2022-11-11T01:43:17;29.04;;;13.64;;
1987;SDS011;12775;46.994;15.498;2022-11-11T01:45:45;34.84;;;13.78;;
1987;SDS011;12775;46.994;15.498;2022-11-11T01:51:10;20.36;;;13.72;;
1987;SDS011;12775;46.994;15.498;2022-11-11T01:53:34;31.22;;;13.50;;
1987;SDS011;12775;46.994;15.498;2022-11-11T01:56:01;43.46;;;14.46;;
1987;SDS011;12775;46.994;15.498;2022-11-11T01:58:27;24.04;;;13.90;;
1987;SDS011;12775;46.994;15.498;2022-11-11T02:00:55;24.66;;;11.54;;
1987;SDS011;12775;46.994;15.498;2022-11-11T02:03:22;17.38;;;11.32;;
1987;SDS011;12775;46.994;15.498;2022-11-11T02:05:48;17.00;;;11.44;;
1987;SDS011;12775;46.994;15.498;2022-11-11T02:08:17;39.32;;;14.46;;
1987;SDS011;12775;46.994;15.498;2022-11-11T02:10:43;23.32;;;12.54;;
1987;SDS011;12775;46.994;15.498;2022-11-11T02:13:11;27.58;;;13.14;;
1987;SDS011;12775;46.994;15.498;2022-11-11T02:15:43;22.34;;;11.64;;
1987;SDS011;12775;46.994;15.498;2022-11-11T02:18:09;22.32;;;12.64;;
1987;SDS011;12775;46.994;15.498;2022-11-11T02:20:37;38.08;;;14.08;;
1987;SDS011;12775;46.994;15.498;2022-11-11T02:23:06;23.12;;;11.80;;
1987;SDS011;12775;46.994;15.498;2022-11-11T02:25:32;35.20;;;13.50;;
1987;SDS011;12775;46.994;15.498;2022-11-11T02:28:00;30.80;;;13.10;;
1987;SDS011;12775;46.994;15.498;2022-11-11T02:30:26;31.18;;;14.00;;
1987;SDS011;12775;46.994;15.498;2022-11-11T02:32:53;24.12;;;12.18;;
1987;SDS011;12775;46.994;15.498;2022-11-11T02:35:21;35.12;;;12.00;;
1987;SDS011;12775;46.994;15.498;2022-11-11T02:37:48;37.32;;;12.90;;
1987;SDS011;12775;46.994;15.498;2022-11-11T02:40:16;33.66;;;13.44;;
1987;SDS011;12775;46.994;15.498;2022-11-11T02:42:43;37.48;;;12.96;;
1987;SDS011;12775;46.994;15.498;2022-11-11T02:45:10;57.56;;;15.00;;
1987;SDS011;12775;46.994;15.498;2022-11-11T02:47:36;39.42;;;13.62;;
1987;SDS011;12775;46.994;15.498;2022-11-11T02:50:03;33.40;;;12.84;;
1987;SDS011;12775;46.994;15.498;2022-11-11T02:52:30;14.76;;;10.90;;
1987;SDS011;12775;46.994;15.498;2022-11-11T02:54:57;37.54;;;12.88;;
1987;SDS011;12775;46.994;15.498;2022-11-11T02:57:24;23.86;;;12.34;;
1987;SDS011;12775;46.994;15.498;2022-11-11T02:59:50;18.66;;;10.92;;
1987;SDS011;12775;46.994;15.498;2022-11-11T03:02:17;26.44;;;11.22;;
1987;SDS011;12775;46.994;15.498;2022-11-11T03:04:44;17.04;;;10.76;;
1987;SDS011;12775;46.994;15.498;2022-11-11T03:07:11;15.18;;;10.14;;
1987;SDS011;12775;46.994;15.498;2022-11-11T03:09:38;13.50;;;10.36;;
1987;SDS011;12775;46.994;15.498;2022-11-11T03:12:04;21.56;;;10.10;;
1987;SDS011;12775;46.994;15.498;2022-11-11T03:14:31;13.48;;;10.62;;
1987;SDS011;12775;46.994;15.498;2022-11-11T03:16:59;12.48;;;11.24;;
1987;SDS011;12775;46.994;15.498;2022-11-11T03:19:31;10.66;;;8.78;;
1987;SDS011;12775;46.994;15.498;2022-11-11T03:21:58;11.74;;;10.44;;
1987;SDS011;12775;46.994;15.498;2022-11-11T03:24:25;14.70;;;9.26;;
1987;SDS011;12775;46.994;15.498;2022-11-11T03:26:54;10.80;;;9.52;;
1987;SDS011;12775;46.994;15.498;2022-11-11T03:29:20;8.86;;;7.96;;
1987;SDS011;12775;46.994;15.498;2022-11-11T03:31:47;10.56;;;8.62;;
1987;SDS011;12775;46.994;15.498;2022-11-11T03:34:13;9.42;;;8.52;;
1987;SDS011;12775;46.994;15.498;2022-11-11T03:36:44;10.44;;;8.98;;
1987;SDS011;12775;46.994;15.498;2022-11-11T03:39:16;8.26;;;7.58;;
1987;SDS011;12775;46.994;15.498;2022-11-11T03:41:42;9.22;;;8.10;;
1987;SDS011;12775;46.994;15.498;2022-11-11T03:44:09;10.22;;;9.12;;
1987;SDS011;12775;46.994;15.498;2022-11-11T03:46:36;11.94;;;8.18;;
1987;SDS011;12775;46.994;15.498;2022-11-11T03:49:02;9.78;;;8.68;;
1987;SDS011;12775;46.994;15.498;2022-11-11T03:51:29;9.30;;;8.40;;
1987;SDS011;12775;46.994;15.498;2022-11-11T03:53:56;13.68;;;10.54;;
1987;SDS011;12775;46.994;15.498;2022-11-11T03:56:23;14.66;;;10.10;;
1987;SDS011;12775;46.994;15.498;2022-11-11T03:58:51;30.72;;;10.88;;
1987;SDS011;12775;46.994;15.498;2022-11-11T04:01:18;25.78;;;11.34;;
1987;SDS011;12775;46.994;15.498;2022-11-11T04:03:50;44.58;;;13.32;;
1987;SDS011;12775;46.994;15.498;2022-11-11T04:06:23;51.30;;;12.60;;
1987;SDS011;12775;46.994;15.498;2022-11-11T04:08:56;62.46;;;13.52;;
1987;SDS011;12775;46.994;15.498;2022-11-11T04:11:32;32.36;;;11.00;;
1987;SDS011;12775;46.994;15.498;2022-11-11T04:14:02;55.44;;;12.84;;
1987;SDS011;12775;46.994;15.498;2022-11-11T04:16:34;52.50;;;11.60;;
1987;SDS011;12775;46.994;15.498;2022-11-11T04:19:00;56.74;;;11.56;;
1987;SDS011;12775;46.994;15.498;2022-11-11T04:21:32;17.86;;;10.36;;
1987;SDS011;12775;46.994;15.498;2022-11-11T04:24:05;16.82;;;8.68;;
1987;SDS011;12775;46.994;15.498;2022-11-11T04:26:37;12.64;;;8.44;;
1987;SDS011;12775;46.994;15.498;2022-11-11T04:29:03;17.42;;;9.86;;
1987;SDS011;12775;46.994;15.498;2022-11-11T04:31:36;20.90;;;8.92;;
1987;SDS011;12775;46.994;15.498;2022-11-11T04:34:02;14.00;;;8.98;;
1987;SDS011;12775;46.994;15.498;2022-11-11T04:36:29;11.46;;;8.70;;
1987;SDS011;12775;46.994;15.498;2022-11-11T04:38:55;9.66;;;8.74;;
1987;SDS011;12775;46.994;15.498;2022-11-11T04:41:28;19.80;;;9.48;;
1987;SDS011;12775;46.994;15.498;2022-11-11T04:43:54;8.92;;;8.02;;
1987;SDS011;12775;46.994;15.498;2022-11-11T04:46:27;9.72;;;8.82;;
1987;SDS011;12775;46.994;15.498;2022-11-11T04:48:53;9.40;;;8.48;;
1987;SDS011;12775;46.994;15.498;2022-11-11T04:51:20;8.90;;;8.00;;
1987;SDS011;12775;46.994;15.498;2022-11-11T04:53:50;9.56;;;8.44;;
1987;SDS011;12775;46.994;15.498;2022-11-11T04:56:17;9.64;;;8.82;;
1987;SDS011;12775;46.994;15.498;2022-11-11T04:58:49;9.84;;;9.04;;
1987;SDS011;12775;46.994;15.498;2022-11-11T05:01:15;10.52;;;8.12;;
1987;SDS011;12775;46.994;15.498;2022-11-11T05:03:42;8.54;;;7.84;;
1987;SDS011;12775;46.994;15.498;2022-11-11T05:06:09;9.08;;;8.28;;
1987;SDS011;12775;46.994;15.498;2022-11-11T05:08:42;13.48;;;9.12;;
1987;SDS011;12775;46.994;15.498;2022-11-11T05:11:15;11.60;;;8.80;;
1987;SDS011;12775;46.994;15.498;2022-11-11T05:13:41;12.94;;;9.06;;
1987;SDS011;12775;46.994;15.498;2022-11-11T05:16:17;9.34;;;8.54;;
1987;SDS011;12775;46.994;15.498;2022-11-11T05:19:00;11.46;;;8.94;;
1987;SDS011;12775;46.994;15.498;2022-11-11T05:21:32;8.78;;;7.90;;
1987;SDS011;12775;46.994;15.498;2022-11-11T05:23:59;10.60;;;7.94;;
1987;SDS011;12775;46.994;15.498;2022-11-11T05:26:32;8.74;;;8.00;;
1987;SDS011;12775;46.994;15.498;2022-11-11T05:28:59;7.62;;;6.90;;
1987;SDS011;12775;46.994;15.498;2022-11-11T05:31:25;7.84;;;7.24;;
1987;SDS011;12775;46.994;15.498;2022-11-11T05:33:52;8.94;;;8.10;;
1987;SDS011;12775;46.994;15.498;2022-11-11T05:36:18;21.56;;;9.88;;
1987;SDS011;12775;46.994;15.498;2022-11-11T05:38:46;10.36;;;9.24;;
1987;SDS011;12775;46.994;15.498;2022-11-11T05:41:12;10.32;;;9.36;;
1987;SDS011;12775;46.994;15.498;2022-11-11T05:43:39;11.20;;;10.24;;
1987;SDS011;12775;46.994;15.498;2022-11-11T05:46:05;11.98;;;10.90;;
1987;SDS011;12775;46.994;15.498;2022-11-11T05:48:32;17.44;;;13.40;;
1987;SDS011;12775;46.994;15.498;2022-11-11T05:50:59;17.24;;;12.72;;
1987;SDS011;12775;46.994;15.498;2022-11-11T05:53:25;15.60;;;13.66;;
1987;SDS011;12775;46.994;15.498;2022-11-11T05:55:52;39.54;;;18.34;;
1987;SDS011;12775;46.994;15.498;2022-11-11T05:58:19;25.26;;;16.96;;
1987;SDS011;12775;46.994;15.498;2022-11-11T06:00:45;52.72;;;21.16;;
1987;SDS011;12775;46.994;15.498;2022-11-11T06:03:12;40.96;;;20.18;;
1987;SDS011;12775;46.994;15.498;2022-11-11T06:05:38;32.18;;;19.58;;
1987;SDS011;12775;46.994;15.498;2022-11-11T06:08:05;40.10;;;20.74;;
1987;SDS011;12775;46.994;15.498;2022-11-11T06:10:31;35.30;;;22.26;;
1987;SDS011;12775;46.994;15.498;2022-11-11T06:12:58;31.96;;;20.92;;
1987;SDS011;12775;46.994;15.498;2022-11-11T06:15:27;38.64;;;21.10;;
1987;SDS011;12775;46.994;15.498;2022-11-11T06:17:53;35.42;;;20.10;;
1987;SDS011;12775;46.994;15.498;2022-11-11T06:20:20;39.72;;;18.58;;
1987;SDS011;12775;46.994;15.498;2022-11-11T06:22:46;30.28;;;14.80;;
1987;SDS011;12775;46.994;15.498;2022-11-11T06:25:18;36.70;;;15.40;;
1987;SDS011;12775;46.994;15.498;2022-11-11T06:27:51;40.68;;;16.14;;
1987;SDS011;12775;46.994;15.498;2022-11-11T06:30:18;28.38;;;14.80;;
1987;SDS011;12775;46.994;15.498;2022-11-11T06:32:45;27.60;;;16.14;;
1987;SDS011;12775;46.994;15.498;2022-11-11T06:35:11;16.12;;;13.24;;
1987;SDS011;12775;46.994;15.498;2022-11-11T06:37:38;16.78;;;13.04;;
1987;SDS011;12775;46.994;15.498;2022-11-11T06:40:04;22.24;;;14.14;;
1987;SDS011;12775;46.994;15.498;2022-11-11T06:42:34;35.10;;;16.00;;
1987;SDS011;12775;46.994;15.498;2022-11-11T06:44:58;27.74;;;18.94;;
1987;SDS011;12775;46.994;15.498;2022-11-11T06:47:25;23.06;;;17.30;;
1987;SDS011;12775;46.994;15.498;2022-11-11T06:49:52;48.90;;;28.32;;
1987;SDS011;12775;46.994;15.498;2022-11-11T06:52:18;28.62;;;19.72;;
1987;SDS011;12775;46.994;15.498;2022-11-11T06:54:45;18.16;;;15.52;;
1987;SDS011;12775;46.994;15.498;2022-11-11T06:57:12;21.40;;;18.94;;
1987;SDS011;12775;46.994;15.498;2022-11-11T06:59:38;36.52;;;25.30;;
1987;SDS011;12775;46.994;15.498;2022-11-11T07:02:05;32.52;;;24.44;;
1987;SDS011;12775;46.994;15.498;2022-11-11T07:04:31;32.38;;;25.76;;
1987;SDS011;12775;46.994;15.498;2022-11-11T07:06:58;31.98;;;26.34;;
1987;SDS011;12775;46.994;15.498;2022-11-11T07:09:25;31.24;;;22.84;;
1987;SDS011;12775;46.994;15.498;2022-11-11T07:11:51;25.16;;;19.26;;
1987;SDS011;12775;46.994;15.498;2022-11-11T07:14:18;20.66;;;17.06;;
1987;SDS011;12775;46.994;15.498;2022-11-11T07:16:44;20.48;;;17.66;;
1987;SDS011;12775;46.994;15.498;2022-11-11T07:19:11;21.62;;;17.58;;
1987;SDS011;12775;46.994;15.498;2022-11-11T07:21:38;21.22;;;16.88;;
1987;SDS011;12775;46.994;15.498;2022-11-11T07:24:04;16.88;;;14.36;;
1987;SDS011;12775;46.994;15.498;2022-11-11T07:26:31;14.12;;;12.46;;
1987;SDS011;12775;46.994;15.498;2022-11-11T07:28:58;14.54;;;13.08;;
1987;SDS011;12775;46.994;15.498;2022-11-11T07:31:24;14.88;;;13.38;;
1987;SDS011;12775;46.994;15.498;2022-11-11T07:33:51;21.60;;;13.86;;
1987;SDS011;12775;46.994;15.498;2022-11-11T07:36:17;15.68;;;12.94;;
1987;SDS011;12775;46.994;15.498;2022-11-11T07:38:45;14.84;;;11.22;;
1987;SDS011;12775;46.994;15.498;2022-11-11T07:41:12;12.38;;;11.18;;
1987;SDS011;12775;46.994;15.498;2022-11-11T07:43:38;13.92;;;12.70;;
1987;SDS011;12775;46.994;15.498;2022-11-11T07:46:05;11.80;;;10.48;;
1987;SDS011;12775;46.994;15.498;2022-11-11T07:48:32;14.78;;;13.48;;
1987;SDS011;12775;46.994;15.498;2022-11-11T07:50:58;13.16;;;11.92;;
1987;SDS011;12775;46.994;15.498;2022-11-11T07:53:25;11.88;;;10.68;;
1987;SDS011;12775;46.994;15.498;2022-11-11T07:55:51;13.78;;;12.48;;
1987;SDS011;12775;46.994;15.498;2022-11-11T07:58:19;16.42;;;14.72;;
1987;SDS011;12775;46.994;15.498;2022-11-11T08:00:46;15.46;;;12.80;;
1987;SDS011;12775;46.994;15.498;2022-11-11T08:03:13;14.94;;;13.48;;
1987;SDS011;12775;46.994;15.498;2022-11-11T08:05:39;16.68;;;15.08;;
1987;SDS011;12775;46.994;15.498;2022-11-11T08:08:07;15.88;;;14.28;;
1987;SDS011;12775;46.994;15.498;2022-11-11T08:10:33;14.68;;;13.48;;
1987;SDS011;12775;46.994;15.498;2022-11-11T08:13:00;15.50;;;13.88;;
1987;SDS011;12775;46.994;15.498;2022-11-11T08:15:31;16.12;;;14.72;;
1987;SDS011;12775;46.994;15.498;2022-11-11T08:17:59;16.14;;;14.72;;
1987;SDS011;12775;46.994;15.498;2022-11-11T08:20:26;17.96;;;14.24;;
1987;SDS011;12775;46.994;15.498;2022-11-11T08:22:53;18.46;;;15.60;;
1987;SDS011;12775;46.994;15.498;2022-11-11T08:25:20;16.72;;;14.58;;
1987;SDS011;12775;46.994;15.498;2022-11-11T08:27:47;15.54;;;14.04;;
1987;SDS011;12775;46.994;15.498;2022-11-11T08:30:13;15.28;;;13.90;;
1987;SDS011;12775;46.994;15.498;2022-11-11T08:32:40;15.92;;;13.54;;
1987;SDS011;12775;46.994;15.498;2022-11-11T08:35:07;18.90;;;14.92;;
1987;SDS011;12775;46.994;15.498;2022-11-11T08:37:33;18.06;;;16.26;;
1987;SDS011;12775;46.994;15.498;2022-11-11T08:40:00;18.30;;;16.44;;
1987;SDS011;12775;46.994;15.498;2022-11-11T08:42:27;18.20;;;16.40;;
1987;SDS011;12775;46.994;15.498;2022-11-11T08:44:53;18.50;;;16.72;;
1987;SDS011;12775;46.994;15.498;2022-11-11T08:47:20;21.92;;;16.76;;
1987;SDS011;12775;46.994;15.498;2022-11-11T08:49:46;16.90;;;15.14;;
1987;SDS011;12775;46.994;15.498;2022-11-11T08:52:14;17.78;;;15.04;;
1987;SDS011;12775;46.994;15.498;2022-11-11T08:54:41;17.08;;;15.38;;
1987;SDS011;12775;46.994;15.498;2022-11-11T08:57:08;16.34;;;14.56;;
1987;SDS011;12775;46.994;15.498;2022-11-11T08:59:34;17.84;;;16.18;;
1987;SDS011;12775;46.994;15.498;2022-11-11T09:02:01;16.58;;;14.04;;
1987;SDS011;12775;46.994;15.498;2022-11-11T09:04:27;15.66;;;13.52;;
1987;SDS011;12775;46.994;15.498;2022-11-11T09:06:54;14.14;;;12.68;;
1987;SDS011;12775;46.994;15.498;2022-11-11T09:09:21;14.82;;;13.38;;
1987;SDS011;12775;46.994;15.498;2022-11-11T09:11:48;14.50;;;13.20;;
1987;SDS011;12775;46.994;15.498;2022-11-11T09:14:14;13.64;;;12.44;;
1987;SDS011;12775;46.994;15.498;2022-11-11T09:16:41;14.42;;;13.02;;
1987;SDS011;12775;46.994;15.498;2022-11-11T09:19:07;15.92;;;13.24;;
1987;SDS011;12775;46.994;15.498;2022-11-11T09:21:34;13.60;;;12.30;;
1987;SDS011;12775;46.994;15.498;2022-11-11T09:24:01;13.66;;;12.34;;
1987;SDS011;12775;46.994;15.498;2022-11-11T09:26:28;11.68;;;10.56;;
1987;SDS011;12775;46.994;15.498;2022-11-11T09:28:55;11.84;;;10.74;;
1987;SDS011;12775;46.994;15.498;2022-11-11T09:31:21;11.30;;;9.90;;
1987;SDS011;12775;46.994;15.498;2022-11-11T09:33:49;11.90;;;10.70;;
1987;SDS011;12775;46.994;15.498;2022-11-11T09:36:16;12.66;;;11.14;;
1987;SDS011;12775;46.994;15.498;2022-11-11T09:38:43;11.68;;;10.54;;
1987;SDS011;12775;46.994;15.498;2022-11-11T09:41:12;11.70;;;10.40;;
1987;SDS011;12775;46.994;15.498;2022-11-11T09:46:25;11.02;;;9.88;;
1987;SDS011;12775;46.994;15.498;2022-11-11T09:50:08;12.90;;;11.64;;
1987;SDS011;12775;46.994;15.498;2022-11-11T09:52:11;12.24;;;10.14;;
1987;SDS011;12775;46.994;15.498;2022-11-11T09:54:41;13.24;;;12.02;;
1987;SDS011;12775;46.994;15.498;2022-11-11T09:57:16;14.44;;;11.82;;
1987;SDS011;12775;46.994;15.498;2022-11-11T09:59:49;12.40;;;11.00;;
1987;SDS011;12775;46.994;15.498;2022-11-11T10:02:18;13.78;;;12.22;;
1987;SDS011;12775;46.994;15.498;2022-11-11T10:07:23;14.88;;;12.28;;
1987;SDS011;12775;46.994;15.498;2022-11-11T10:09:49;12.30;;;11.08;;
1987;SDS011;12775;46.994;15.498;2022-11-11T10:12:14;14.26;;;12.80;;
1987;SDS011;12775;46.994;15.498;2022-11-11T10:14:42;13.12;;;11.96;;
1987;SDS011;12775;46.994;15.498;2022-11-11T10:17:13;13.76;;;11.60;;
1987;SDS011;12775;46.994;15.498;2022-11-11T10:19:57;13.72;;;11.46;;
1987;SDS011;12775;46.994;15.498;2022-11-11T10:22:35;11.54;;;10.34;;
1987;SDS011;12775;46.994;15.498;2022-11-11T10:25:13;12.66;;;10.64;;
1987;SDS011;12775;46.994;15.498;2022-11-11T10:27:45;12.40;;;10.82;;
1987;SDS011;12775;46.994;15.498;2022-11-11T10:30:22;12.56;;;11.26;;
1987;SDS011;12775;46.994;15.498;2022-11-11T10:32:52;14.08;;;9.72;;
1987;SDS011;12775;46.994;15.498;2022-11-11T10:35:21;11.38;;;10.16;;
1987;SDS011;12775;46.994;15.498;2022-11-11T10:37:47;12.52;;;11.34;;
1987;SDS011;12775;46.994;15.498;2022-11-11T10:40:16;13.08;;;11.62;;
1987;SDS011;12775;46.994;15.498;2022-11-11T10:42:42;12.08;;;10.44;;
1987;SDS011;12775;46.994;15.498;2022-11-11T10:45:12;10.26;;;9.28;;
1987;SDS011;12775;46.994;15.498;2022-11-11T10:47:43;11.82;;;10.82;;
1987;SDS011;12775;46.994;15.498;2022-11-11T10:50:13;14.24;;;11.50;;
1987;SDS011;12775;46.994;15.498;2022-11-11T10:52:42;15.04;;;10.88;;
1987;SDS011;12775;46.994;15.498;2022-11-11T10:55:08;12.02;;;10.98;;
1987;SDS011;12775;46.994;15.498;2022-11-11T10:57:46;12.86;;;10.66;;
1987;SDS011;12775;46.994;15.498;2022-11-11T11:00:28;10.30;;;9.04;;
1987;SDS011;12775;46.994;15.498;2022-11-11T11:02:59;12.14;;;10.94;;
1987;SDS011;12775;46.994;15.498;2022-11-11T11:05:30;11.50;;;9.98;;
1987;SDS011;12775;46.994;15.498;2022-11-11T11:08:01;13.64;;;10.52;;
1987;SDS011;12775;46.994;15.498;2022-11-11T11:10:28;10.66;;;9.70;;
1987;SDS011;12775;46.994;15.498;2022-11-11T11:12:59;13.92;;;11.02;;
1987;SDS011;12775;46.994;15.498;2022-11-11T11:15:40;10.66;;;9.70;;
1987;SDS011;12775;46.994;15.498;2022-11-11T11:18:07;12.32;;;9.54;;
1987;SDS011;12775;46.994;15.498;2022-11-11T11:20:34;11.24;;;10.24;;
1987;SDS011;12775;46.994;15.498;2022-11-11T11:23:00;11.88;;;9.04;;
1987;SDS011;12775;46.994;15.498;2022-11-11T11:25:28;12.00;;;10.72;;
1987;SDS011;12775;46.994;15.498;2022-11-11T11:30:30;12.80;;;10.08;;
1987;SDS011;12775;46.994;15.498;2022-11-11T11:32:57;11.38;;;10.30;;
1987;SDS011;12775;46.994;15.498;2022-11-11T11:35:28;11.02;;;9.92;;
1987;SDS011;12775;46.994;15.498;2022-11-11T11:37:54;31.12;;;19.82;;
1987;SDS011;12775;46.994;15.498;2022-11-11T11:40:21;38.56;;;22.14;;
1987;SDS011;12775;46.994;15.498;2022-11-11T11:42:47;31.00;;;20.62;;
1987;SDS011;12775;46.994;15.498;2022-11-11T11:48:53;20.32;;;15.84;;
1987;SDS011;12775;46.994;15.498;2022-11-11T11:50:49;12.70;;;11.30;;
1987;SDS011;12775;46.994;15.498;2022-11-11T11:53:19;11.00;;;9.90;;
1987;SDS011;12775;46.994;15.498;2022-11-11T11:55:45;11.36;;;10.14;;
1987;SDS011;12775;46.994;15.498;2022-11-11T12:01:04;17.22;;;11.08;;
1987;SDS011;12775;46.994;15.498;2022-11-11T12:03:55;11.54;;;10.26;;
1987;SDS011;12775;46.994;15.498;2022-11-11T12:07:29;11.56;;;10.42;;
1987;SDS011;12775;46.994;15.498;2022-11-11T12:09:05;15.38;;;10.00;;
1987;SDS011;12775;46.994;15.498;2022-11-11T12:14:19;11.84;;;9.86;;
1987;SDS011;12775;46.994;15.498;2022-11-11T12:16:59;12.62;;;10.26;;
1987;SDS011;12775;46.994;15.498;2022-11-11T12:19:41;10.54;;;9.44;;
1987;SDS011;12775;46.994;15.498;2022-11-11T12:23:21;9.68;;;8.66;;
1987;SDS011;12775;46.994;15.498;2022-11-11T12:25:01;14.22;;;9.96;;
1987;SDS011;12775;46.994;15.498;2022-11-11T12:27:30;9.88;;;9.08;;
1987;SDS011;12775;46.994;15.498;2022-11-11T12:30:27;10.06;;;9.02;;
1987;SDS011;12775;46.994;15.498;2022-11-11T12:32:43;9.04;;;8.14;;
1987;SDS011;12775;46.994;15.498;2022-11-11T12:35:14;11.62;;;10.42;;
1987;SDS011;12775;46.994;15.498;2022-11-11T12:38:00;10.36;;;9.26;;
1987;SDS011;12775;46.994;15.498;2022-11-11T12:40:34;11.58;;;9.18;;
1987;SDS011;12775;46.994;15.498;2022-11-11T12:43:07;11.28;;;9.40;;
1987;SDS011;12775;46.994;15.498;2022-11-11T12:48:27;10.98;;;9.12;;
1987;SDS011;12775;46.994;15.498;2022-11-11T12:50:57;10.70;;;9.64;;
1987;SDS011;12775;46.994;15.498;2022-11-11T12:53:33;10.28;;;9.32;;
1987;SDS011;12775;46.994;15.498;2022-11-11T12:58:42;9.86;;;8.48;;
1987;SDS011;12775;46.994;15.498;2022-11-11T13:01:13;9.24;;;8.40;;
1987;SDS011;12775;46.994;15.498;2022-11-11T13:03:48;8.48;;;7.68;;
1987;SDS011;12775;46.994;15.498;2022-11-11T13:06:34;9.00;;;7.98;;
1987;SDS011;12775;46.994;15.498;2022-11-11T13:09:07;11.32;;;10.26;;
1987;SDS011;12775;46.994;15.498;2022-11-11T13:11:58;11.10;;;8.32;;
1987;SDS011;12775;46.994;15.498;2022-11-11T13:14:37;8.68;;;7.88;;
1987;SDS011;12775;46.994;15.498;2022-11-11T13:17:04;8.88;;;7.96;;
1987;SDS011;12775;46.994;15.498;2022-11-11T13:19:36;15.92;;;7.74;;
1987;SDS011;12775;46.994;15.498;2022-11-11T13:22:34;9.90;;;8.90;;
1987;SDS011;12775;46.994;15.498;2022-11-11T13:24:44;9.70;;;8.70;;
1987;SDS011;12775;46.994;15.498;2022-11-11T13:27:14;11.62;;;8.00;;
1987;SDS011;12775;46.994;15.498;2022-11-11T13:32:43;10.40;;;8.38;;
1987;SDS011;12775;46.994;15.498;2022-11-11T13:35:27;10.70;;;8.82;;
1987;SDS011;12775;46.994;15.498;2022-11-11T13:37:54;9.00;;;7.48;;
1987;SDS011;12775;46.994;15.498;2022-11-11T13:40:31;7.86;;;7.16;;
1987;SDS011;12775;46.994;15.498;2022-11-11T13:42:49;9.40;;;8.22;;
1987;SDS011;12775;46.994;15.498;2022-11-11T13:45:21;7.62;;;6.90;;
1987;SDS011;12775;46.994;15.498;2022-11-11T13:47:49;10.12;;;9.02;;
1987;SDS011;12775;46.994;15.498;2022-11-11T13:50:22;9.98;;;8.96;;
1987;SDS011;12775;46.994;15.498;2022-11-11T13:52:55;15.52;;;11.96;;
1987;SDS011;12775;46.994;15.498;2022-11-11T13:55:22;14.42;;;10.24;;
1987;SDS011;12775;46.994;15.498;2022-11-11T13:57:48;11.76;;;10.02;;
1987;SDS011;12775;46.994;15.498;2022-11-11T14:00:24;10.16;;;9.26;;
1987;SDS011;12775;46.994;15.498;2022-11-11T14:05:41;13.92;;;10.00;;
1987;SDS011;12775;46.994;15.498;2022-11-11T14:08:08;11.54;;;10.30;;
1987;SDS011;12775;46.994;15.498;2022-11-11T14:10:51;13.28;;;9.90;;
1987;SDS011;12775;46.994;15.498;2022-11-11T14:13:35;10.86;;;9.86;;
1987;SDS011;12775;46.994;15.498;2022-11-11T14:16:02;10.42;;;9.42;;
1987;SDS011;12775;46.994;15.498;2022-11-11T14:18:34;11.02;;;9.94;;
1987;SDS011;12775;46.994;15.498;2022-11-11T14:21:02;12.00;;;10.10;;
1987;SDS011;12775;46.994;15.498;2022-11-11T14:23:31;12.10;;;9.28;;
1987;SDS011;12775;46.994;15.498;2022-11-11T14:28:53;11.72;;;10.52;;
1987;SDS011;12775;46.994;15.498;2022-11-11T14:31:27;14.54;;;10.54;;
1987;SDS011;12775;46.994;15.498;2022-11-11T14:33:54;10.30;;;9.30;;
1987;SDS011;12775;46.994;15.498;2022-11-11T14:36:23;10.76;;;9.72;;
1987;SDS011;12775;46.994;15.498;2022-11-11T14:38:50;9.28;;;8.48;;
1987;SDS011;12775;46.994;15.498;2022-11-11T14:52:20;11.18;;;10.18;;
1987;SDS011;12775;46.994;15.498;2022-11-11T14:54:32;12.22;;;10.32;;
1987;SDS011;12775;46.994;15.498;2022-11-11T14:57:00;11.34;;;10.24;;
1987;SDS011;12775;46.994;15.498;2022-11-11T14:59:26;11.04;;;9.94;;
1987;SDS011;12775;46.994;15.498;2022-11-11T15:01:52;14.16;;;12.66;;
1987;SDS011;12775;46.994;15.498;2022-11-11T15:04:18;23.20;;;15.32;;
1987;SDS011;12775;46.994;15.498;2022-11-11T15:12:19;22.36;;;15.56;;
1987;SDS011;12775;46.994;15.498;2022-11-11T15:14:52;26.34;;;14.80;;
1987;SDS011;12775;46.994;15.498;2022-11-11T15:17:38;31.46;;;15.30;;
1987;SDS011;12775;46.994;15.498;2022-11-11T15:20:16;38.12;;;15.40;;
1987;SDS011;12775;46.994;15.498;2022-11-11T15:22:48;27.88;;;14.68;;
1987;SDS011;12775;46.994;15.498;2022-11-11T15:27:50;20.44;;;12.66;;
1987;SDS011;12775;46.994;15.498;2022-11-11T15:30:17;24.38;;;13.02;;